Lehman Caves, Nevada
Current Conditions -  °F | °C
As of 3:53 PM on Monday 20 Oct 2014 (Local Time) from KELY Reporting Station
Broken Clouds Broken Clouds  
Wind Chill: 71°   Ceiling: 8500
Heat Index: 71°   Visibility: 10mi
Dew Point: 29°   Wind: 20mph
Humidity: 21%   Direction: 180°S
Pressure: 30.01"   Gusts: 26mph
Location:  39.1253°N, 114.292°W
Report Text: KELY 202253Z AUTO 18017G23KT 10SM BKN085 22/M02 A3001 RMK AO2 SLP094 T02171017
Loading
Personal Weather Stations






























Interactive Weather Map
Tropical Storm Tracking
New forecast layout! Learn more

10-Day Weather Forecast

Advertisements
Track Severe Weather on mobile